sensor_id;sensor_type;location;lat;lon;timestamp;P1;durP1;ratioP1;P2;durP2;ratioP2
24857;SDS011;12935;50.782;6.074;2022-09-28T00:00:17;96.43;;;76.93;;
24857;SDS011;12935;50.782;6.074;2022-09-28T00:02:43;80.83;;;72.00;;
24857;SDS011;12935;50.782;6.074;2022-09-28T00:05:08;78.07;;;70.40;;
24857;SDS011;12935;50.782;6.074;2022-09-28T00:07:36;81.18;;;72.30;;
24857;SDS011;12935;50.782;6.074;2022-09-28T00:10:02;78.20;;;70.20;;
24857;SDS011;12935;50.782;6.074;2022-09-28T00:12:27;88.23;;;75.80;;
24857;SDS011;12935;50.782;6.074;2022-09-28T00:14:53;78.65;;;70.60;;
24857;SDS011;12935;50.782;6.074;2022-09-28T00:17:19;85.57;;;74.47;;
24857;SDS011;12935;50.782;6.074;2022-09-28T00:19:46;82.63;;;72.75;;
24857;SDS011;12935;50.782;6.074;2022-09-28T00:22:12;106.83;;;79.93;;
24857;SDS011;12935;50.782;6.074;2022-09-28T00:24:37;103.23;;;77.90;;
24857;SDS011;12935;50.782;6.074;2022-09-28T00:27:02;79.40;;;71.30;;
24857;SDS011;12935;50.782;6.074;2022-09-28T00:32:01;82.68;;;72.93;;
24857;SDS011;12935;50.782;6.074;2022-09-28T00:34:30;79.35;;;71.15;;
24857;SDS011;12935;50.782;6.074;2022-09-28T00:36:58;81.18;;;71.95;;
24857;SDS011;12935;50.782;6.074;2022-09-28T00:39:25;78.72;;;70.57;;
24857;SDS011;12935;50.782;6.074;2022-09-28T00:41:51;77.72;;;69.72;;
24857;SDS011;12935;50.782;6.074;2022-09-28T00:46:52;79.65;;;71.20;;
24857;SDS011;12935;50.782;6.074;2022-09-28T00:49:25;96.43;;;74.53;;
24857;SDS011;12935;50.782;6.074;2022-09-28T00:51:57;77.57;;;69.82;;
24857;SDS011;12935;50.782;6.074;2022-09-28T00:54:23;78.30;;;70.15;;
24857;SDS011;12935;50.782;6.074;2022-09-28T00:56:50;83.47;;;71.53;;
24857;SDS011;12935;50.782;6.074;2022-09-28T00:59:15;79.93;;;71.57;;
24857;SDS011;12935;50.782;6.074;2022-09-28T01:01:40;82.83;;;73.67;;
24857;SDS011;12935;50.782;6.074;2022-09-28T01:04:06;74.90;;;67.60;;
24857;SDS011;12935;50.782;6.074;2022-09-28T01:06:32;76.77;;;69.17;;
24857;SDS011;12935;50.782;6.074;2022-09-28T01:09:00;76.22;;;68.57;;
24857;SDS011;12935;50.782;6.074;2022-09-28T01:11:32;75.47;;;67.80;;
24857;SDS011;12935;50.782;6.074;2022-09-28T01:13:59;77.40;;;69.15;;
24857;SDS011;12935;50.782;6.074;2022-09-28T01:21:49;72.97;;;66.00;;
24857;SDS011;12935;50.782;6.074;2022-09-28T01:24:29;73.20;;;66.10;;
24857;SDS011;12935;50.782;6.074;2022-09-28T01:27:12;73.43;;;66.28;;
24857;SDS011;12935;50.782;6.074;2022-09-28T01:30:03;79.43;;;70.75;;
24857;SDS011;12935;50.782;6.074;2022-09-28T01:35:38;75.18;;;67.70;;
24857;SDS011;12935;50.782;6.074;2022-09-28T01:40:43;78.03;;;69.80;;
24857;SDS011;12935;50.782;6.074;2022-09-28T01:43:12;75.65;;;68.40;;
24857;SDS011;12935;50.782;6.074;2022-09-28T01:45:44;77.65;;;69.75;;
24857;SDS011;12935;50.782;6.074;2022-09-28T01:48:16;72.75;;;66.25;;
24857;SDS011;12935;50.782;6.074;2022-09-28T01:50:45;75.75;;;67.50;;
24857;SDS011;12935;50.782;6.074;2022-09-28T01:53:17;73.00;;;66.40;;
24857;SDS011;12935;50.782;6.074;2022-09-28T01:55:54;76.82;;;68.22;;
24857;SDS011;12935;50.782;6.074;2022-09-28T01:58:29;75.60;;;67.15;;
24857;SDS011;12935;50.782;6.074;2022-09-28T02:01:05;76.95;;;68.70;;
24857;SDS011;12935;50.782;6.074;2022-09-28T02:03:42;81.15;;;70.65;;
24857;SDS011;12935;50.782;6.074;2022-09-28T02:06:23;74.72;;;67.38;;
24857;SDS011;12935;50.782;6.074;2022-09-28T02:08:56;75.82;;;68.38;;
24857;SDS011;12935;50.782;6.074;2022-09-28T02:11:27;76.30;;;68.57;;
24857;SDS011;12935;50.782;6.074;2022-09-28T02:13:54;77.10;;;69.50;;
24857;SDS011;12935;50.782;6.074;2022-09-28T02:16:46;76.95;;;69.05;;
24857;SDS011;12935;50.782;6.074;2022-09-28T02:19:16;76.72;;;69.05;;
24857;SDS011;12935;50.782;6.074;2022-09-28T02:22:07;84.97;;;73.63;;
24857;SDS011;12935;50.782;6.074;2022-09-28T02:25:10;81.38;;;72.82;;
24857;SDS011;12935;50.782;6.074;2022-09-28T02:27:57;77.32;;;69.53;;
24857;SDS011;12935;50.782;6.074;2022-09-28T02:30:26;77.47;;;69.53;;
24857;SDS011;12935;50.782;6.074;2022-09-28T02:32:54;76.25;;;68.88;;
24857;SDS011;12935;50.782;6.074;2022-09-28T02:35:23;79.43;;;71.18;;
24857;SDS011;12935;50.782;6.074;2022-09-28T02:37:48;81.00;;;72.37;;
24857;SDS011;12935;50.782;6.074;2022-09-28T02:40:14;77.88;;;69.65;;
24857;SDS011;12935;50.782;6.074;2022-09-28T02:43:28;80.75;;;71.93;;
24857;SDS011;12935;50.782;6.074;2022-09-28T02:51:18;79.20;;;71.10;;
24857;SDS011;12935;50.782;6.074;2022-09-28T02:59:38;93.35;;;75.20;;
24857;SDS011;12935;50.782;6.074;2022-09-28T03:02:19;106.07;;;78.65;;
24857;SDS011;12935;50.782;6.074;2022-09-28T03:05:11;81.80;;;73.15;;
24857;SDS011;12935;50.782;6.074;2022-09-28T03:07:42;80.28;;;71.63;;
24857;SDS011;12935;50.782;6.074;2022-09-28T03:10:14;77.18;;;69.63;;
24857;SDS011;12935;50.782;6.074;2022-09-28T03:12:46;80.53;;;72.30;;
24857;SDS011;12935;50.782;6.074;2022-09-28T03:15:18;81.70;;;73.07;;
24857;SDS011;12935;50.782;6.074;2022-09-28T03:17:44;99.00;;;76.63;;
24857;SDS011;12935;50.782;6.074;2022-09-28T03:20:09;75.80;;;68.40;;
24857;SDS011;12935;50.782;6.074;2022-09-28T03:22:35;81.38;;;72.57;;
24857;SDS011;12935;50.782;6.074;2022-09-28T03:25:01;84.67;;;75.93;;
24857;SDS011;12935;50.782;6.074;2022-09-28T03:27:26;76.23;;;69.47;;
24857;SDS011;12935;50.782;6.074;2022-09-28T03:29:52;96.67;;;78.33;;
24857;SDS011;12935;50.782;6.074;2022-09-28T03:32:17;97.00;;;77.40;;
24857;SDS011;12935;50.782;6.074;2022-09-28T03:34:42;78.40;;;70.60;;
24857;SDS011;12935;50.782;6.074;2022-09-28T03:37:07;76.27;;;68.60;;
24857;SDS011;12935;50.782;6.074;2022-09-28T03:39:33;78.83;;;70.57;;
24857;SDS011;12935;50.782;6.074;2022-09-28T03:42:01;83.77;;;74.80;;
24857;SDS011;12935;50.782;6.074;2022-09-28T03:44:26;84.22;;;72.13;;
24857;SDS011;12935;50.782;6.074;2022-09-28T03:46:51;85.40;;;75.10;;
24857;SDS011;12935;50.782;6.074;2022-09-28T03:49:17;91.73;;;77.70;;
24857;SDS011;12935;50.782;6.074;2022-09-28T03:51:42;81.57;;;73.23;;
24857;SDS011;12935;50.782;6.074;2022-09-28T03:54:07;82.77;;;74.00;;
24857;SDS011;12935;50.782;6.074;2022-09-28T03:56:33;82.73;;;73.90;;
24857;SDS011;12935;50.782;6.074;2022-09-28T03:58:58;88.07;;;75.97;;
24857;SDS011;12935;50.782;6.074;2022-09-28T04:01:23;80.70;;;72.27;;
24857;SDS011;12935;50.782;6.074;2022-09-28T04:03:52;81.90;;;73.47;;
24857;SDS011;12935;50.782;6.074;2022-09-28T04:06:20;81.72;;;72.97;;
24857;SDS011;12935;50.782;6.074;2022-09-28T04:08:45;77.80;;;69.97;;
24857;SDS011;12935;50.782;6.074;2022-09-28T04:11:11;85.87;;;76.73;;
24857;SDS011;12935;50.782;6.074;2022-09-28T04:13:36;91.57;;;74.90;;
24857;SDS011;12935;50.782;6.074;2022-09-28T04:16:01;70.47;;;63.73;;
24857;SDS011;12935;50.782;6.074;2022-09-28T04:18:27;72.30;;;65.45;;
24857;SDS011;12935;50.782;6.074;2022-09-28T04:23:27;77.88;;;69.75;;
24857;SDS011;12935;50.782;6.074;2022-09-28T04:25:52;97.37;;;83.50;;
24857;SDS011;12935;50.782;6.074;2022-09-28T04:28:18;77.60;;;69.47;;
24857;SDS011;12935;50.782;6.074;2022-09-28T04:31:02;81.97;;;72.95;;
24857;SDS011;12935;50.782;6.074;2022-09-28T04:33:27;83.90;;;74.90;;
24857;SDS011;12935;50.782;6.074;2022-09-28T04:35:53;80.03;;;71.43;;
24857;SDS011;12935;50.782;6.074;2022-09-28T04:38:18;86.83;;;76.63;;
24857;SDS011;12935;50.782;6.074;2022-09-28T04:40:43;95.73;;;79.30;;
24857;SDS011;12935;50.782;6.074;2022-09-28T04:43:09;88.83;;;76.87;;
24857;SDS011;12935;50.782;6.074;2022-09-28T04:45:34;83.70;;;75.07;;
24857;SDS011;12935;50.782;6.074;2022-09-28T04:47:59;81.40;;;73.20;;
24857;SDS011;12935;50.782;6.074;2022-09-28T04:50:25;99.83;;;79.80;;
24857;SDS011;12935;50.782;6.074;2022-09-28T04:52:50;85.77;;;76.23;;
24857;SDS011;12935;50.782;6.074;2022-09-28T04:55:15;84.27;;;75.60;;
24857;SDS011;12935;50.782;6.074;2022-09-28T04:57:41;84.93;;;75.87;;
24857;SDS011;12935;50.782;6.074;2022-09-28T05:00:06;84.17;;;75.03;;
24857;SDS011;12935;50.782;6.074;2022-09-28T05:02:33;110.25;;;83.13;;
24857;SDS011;12935;50.782;6.074;2022-09-28T05:04:58;93.83;;;78.87;;
24857;SDS011;12935;50.782;6.074;2022-09-28T05:07:24;89.80;;;77.47;;
24857;SDS011;12935;50.782;6.074;2022-09-28T05:09:50;86.28;;;77.03;;
24857;SDS011;12935;50.782;6.074;2022-09-28T05:12:16;84.20;;;75.13;;
24857;SDS011;12935;50.782;6.074;2022-09-28T05:14:42;90.60;;;78.93;;
24857;SDS011;12935;50.782;6.074;2022-09-28T05:17:08;85.90;;;76.67;;
24857;SDS011;12935;50.782;6.074;2022-09-28T05:19:34;94.13;;;78.95;;
24857;SDS011;12935;50.782;6.074;2022-09-28T05:21:59;81.57;;;73.00;;
24857;SDS011;12935;50.782;6.074;2022-09-28T05:24:28;87.63;;;77.40;;
24857;SDS011;12935;50.782;6.074;2022-09-28T05:26:54;90.73;;;81.20;;
24857;SDS011;12935;50.782;6.074;2022-09-28T05:29:19;83.27;;;74.47;;
24857;SDS011;12935;50.782;6.074;2022-09-28T05:31:44;84.80;;;75.67;;
24857;SDS011;12935;50.782;6.074;2022-09-28T05:34:09;86.37;;;76.70;;
24857;SDS011;12935;50.782;6.074;2022-09-28T05:36:35;84.37;;;75.50;;
24857;SDS011;12935;50.782;6.074;2022-09-28T05:39:01;88.73;;;79.33;;
24857;SDS011;12935;50.782;6.074;2022-09-28T05:41:27;88.72;;;78.47;;
24857;SDS011;12935;50.782;6.074;2022-09-28T05:43:53;89.60;;;80.10;;
24857;SDS011;12935;50.782;6.074;2022-09-28T05:46:19;101.10;;;81.07;;
24857;SDS011;12935;50.782;6.074;2022-09-28T05:48:45;87.13;;;76.88;;
24857;SDS011;12935;50.782;6.074;2022-09-28T05:51:11;83.70;;;75.00;;
24857;SDS011;12935;50.782;6.074;2022-09-28T05:53:36;93.73;;;78.97;;
24857;SDS011;12935;50.782;6.074;2022-09-28T05:56:01;78.03;;;70.13;;
24857;SDS011;12935;50.782;6.074;2022-09-28T05:58:27;100.57;;;78.93;;
24857;SDS011;12935;50.782;6.074;2022-09-28T06:00:53;81.30;;;72.50;;
24857;SDS011;12935;50.782;6.074;2022-09-28T06:03:19;83.30;;;74.32;;
24857;SDS011;12935;50.782;6.074;2022-09-28T06:05:45;93.40;;;77.53;;
24857;SDS011;12935;50.782;6.074;2022-09-28T06:08:11;84.93;;;76.00;;
24857;SDS011;12935;50.782;6.074;2022-09-28T06:10:37;110.20;;;86.07;;
24857;SDS011;12935;50.782;6.074;2022-09-28T06:13:03;91.03;;;81.28;;
24857;SDS011;12935;50.782;6.074;2022-09-28T06:15:30;103.67;;;83.93;;
24857;SDS011;12935;50.782;6.074;2022-09-28T06:18:01;87.90;;;78.97;;
24857;SDS011;12935;50.782;6.074;2022-09-28T06:20:32;103.80;;;87.57;;
24857;SDS011;12935;50.782;6.074;2022-09-28T06:22:59;109.03;;;87.60;;
24857;SDS011;12935;50.782;6.074;2022-09-28T06:25:25;92.10;;;82.20;;
24857;SDS011;12935;50.782;6.074;2022-09-28T06:28:06;96.55;;;84.63;;
24857;SDS011;12935;50.782;6.074;2022-09-28T06:30:34;93.35;;;83.60;;
24857;SDS011;12935;50.782;6.074;2022-09-28T06:33:04;99.45;;;87.15;;
24857;SDS011;12935;50.782;6.074;2022-09-28T06:35:30;113.53;;;89.25;;
24857;SDS011;12935;50.782;6.074;2022-09-28T06:37:56;93.20;;;83.30;;
24857;SDS011;12935;50.782;6.074;2022-09-28T06:40:23;96.78;;;86.20;;
24857;SDS011;12935;50.782;6.074;2022-09-28T06:42:59;89.87;;;81.10;;
24857;SDS011;12935;50.782;6.074;2022-09-28T06:45:26;95.03;;;84.75;;
24857;SDS011;12935;50.782;6.074;2022-09-28T06:48:02;104.75;;;89.60;;
24857;SDS011;12935;50.782;6.074;2022-09-28T06:50:29;99.78;;;87.18;;
24857;SDS011;12935;50.782;6.074;2022-09-28T06:53:00;97.25;;;86.65;;
24857;SDS011;12935;50.782;6.074;2022-09-28T06:55:26;99.67;;;88.87;;
24857;SDS011;12935;50.782;6.074;2022-09-28T06:58:01;110.47;;;91.43;;
24857;SDS011;12935;50.782;6.074;2022-09-28T07:00:29;95.95;;;85.88;;
24857;SDS011;12935;50.782;6.074;2022-09-28T07:02:58;103.35;;;88.35;;
24857;SDS011;12935;50.782;6.074;2022-09-28T07:05:25;99.95;;;88.50;;
24857;SDS011;12935;50.782;6.074;2022-09-28T07:07:52;93.70;;;84.00;;
24857;SDS011;12935;50.782;6.074;2022-09-28T07:10:20;99.68;;;88.57;;
24857;SDS011;12935;50.782;6.074;2022-09-28T07:12:49;93.97;;;84.18;;
24857;SDS011;12935;50.782;6.074;2022-09-28T07:15:15;94.70;;;85.35;;
24857;SDS011;12935;50.782;6.074;2022-09-28T07:17:41;93.03;;;83.43;;
24857;SDS011;12935;50.782;6.074;2022-09-28T07:20:06;96.67;;;86.20;;
24857;SDS011;12935;50.782;6.074;2022-09-28T07:22:32;109.67;;;89.43;;
24857;SDS011;12935;50.782;6.074;2022-09-28T07:24:58;96.15;;;86.15;;
24857;SDS011;12935;50.782;6.074;2022-09-28T07:27:24;94.63;;;84.87;;
24857;SDS011;12935;50.782;6.074;2022-09-28T07:29:50;95.00;;;85.28;;
24857;SDS011;12935;50.782;6.074;2022-09-28T07:32:17;99.50;;;87.35;;
24857;SDS011;12935;50.782;6.074;2022-09-28T07:34:43;94.23;;;84.57;;
24857;SDS011;12935;50.782;6.074;2022-09-28T07:37:09;116.30;;;92.20;;
24857;SDS011;12935;50.782;6.074;2022-09-28T07:39:35;96.50;;;86.00;;
24857;SDS011;12935;50.782;6.074;2022-09-28T07:42:21;112.30;;;91.47;;
24857;SDS011;12935;50.782;6.074;2022-09-28T07:44:47;92.90;;;83.57;;
24857;SDS011;12935;50.782;6.074;2022-09-28T07:47:12;96.77;;;86.43;;
24857;SDS011;12935;50.782;6.074;2022-09-28T07:49:38;115.77;;;93.70;;
24857;SDS011;12935;50.782;6.074;2022-09-28T07:52:03;96.23;;;86.27;;
24857;SDS011;12935;50.782;6.074;2022-09-28T07:54:28;113.27;;;92.07;;
24857;SDS011;12935;50.782;6.074;2022-09-28T07:56:55;96.78;;;86.85;;
24857;SDS011;12935;50.782;6.074;2022-09-28T07:59:20;94.47;;;84.93;;
24857;SDS011;12935;50.782;6.074;2022-09-28T08:01:46;99.50;;;88.03;;
24857;SDS011;12935;50.782;6.074;2022-09-28T08:04:15;99.75;;;87.82;;
24857;SDS011;12935;50.782;6.074;2022-09-28T08:06:41;100.27;;;86.77;;
24857;SDS011;12935;50.782;6.074;2022-09-28T08:09:06;93.40;;;83.67;;
24857;SDS011;12935;50.782;6.074;2022-09-28T08:11:31;95.20;;;85.43;;
24857;SDS011;12935;50.782;6.074;2022-09-28T08:13:56;119.37;;;94.60;;
24857;SDS011;12935;50.782;6.074;2022-09-28T08:16:24;88.47;;;79.05;;
24857;SDS011;12935;50.782;6.074;2022-09-28T08:18:49;94.83;;;84.63;;
24857;SDS011;12935;50.782;6.074;2022-09-28T08:21:14;103.50;;;88.17;;
24857;SDS011;12935;50.782;6.074;2022-09-28T08:23:58;98.10;;;87.47;;
24857;SDS011;12935;50.782;6.074;2022-09-28T08:26:24;113.00;;;91.00;;
24857;SDS011;12935;50.782;6.074;2022-09-28T08:28:49;95.50;;;85.20;;
24857;SDS011;12935;50.782;6.074;2022-09-28T08:31:15;100.10;;;88.37;;
24857;SDS011;12935;50.782;6.074;2022-09-28T08:33:40;96.73;;;86.70;;
24857;SDS011;12935;50.782;6.074;2022-09-28T08:36:06;95.80;;;86.10;;
24857;SDS011;12935;50.782;6.074;2022-09-28T08:38:33;108.07;;;90.47;;
24857;SDS011;12935;50.782;6.074;2022-09-28T08:41:08;99.07;;;88.50;;
24857;SDS011;12935;50.782;6.074;2022-09-28T08:46:19;107.95;;;89.28;;
24857;SDS011;12935;50.782;6.074;2022-09-28T08:48:51;99.43;;;88.13;;
24857;SDS011;12935;50.782;6.074;2022-09-28T08:53:59;101.20;;;88.88;;
24857;SDS011;12935;50.782;6.074;2022-09-28T08:59:25;99.43;;;88.63;;
24857;SDS011;12935;50.782;6.074;2022-09-28T09:02:01;96.22;;;86.25;;
24857;SDS011;12935;50.782;6.074;2022-09-28T09:04:28;104.95;;;90.22;;
24857;SDS011;12935;50.782;6.074;2022-09-28T09:17:56;122.22;;;95.95;;
24857;SDS011;12935;50.782;6.074;2022-09-28T09:23:06;106.00;;;89.43;;
24857;SDS011;12935;50.782;6.074;2022-09-28T09:25:53;108.53;;;92.03;;
24857;SDS011;12935;50.782;6.074;2022-09-28T09:28:37;119.97;;;92.95;;
24857;SDS011;12935;50.782;6.074;2022-09-28T09:34:07;104.28;;;92.97;;
24857;SDS011;12935;50.782;6.074;2022-09-28T09:42:39;115.07;;;92.53;;
24857;SDS011;12935;50.782;6.074;2022-09-28T09:47:59;99.45;;;89.05;;
24857;SDS011;12935;50.782;6.074;2022-09-28T09:50:26;102.60;;;91.22;;
24857;SDS011;12935;50.782;6.074;2022-09-28T09:53:03;123.68;;;97.28;;
24857;SDS011;12935;50.782;6.074;2022-09-28T09:55:44;114.65;;;94.97;;
24857;SDS011;12935;50.782;6.074;2022-09-28T09:58:21;99.68;;;88.97;;
24857;SDS011;12935;50.782;6.074;2022-09-28T10:00:53;109.87;;;93.23;;
24857;SDS011;12935;50.782;6.074;2022-09-28T10:03:23;104.43;;;91.55;;
24857;SDS011;12935;50.782;6.074;2022-09-28T10:05:58;104.85;;;91.18;;
24857;SDS011;12935;50.782;6.074;2022-09-28T10:08:28;123.75;;;92.65;;
24857;SDS011;12935;50.782;6.074;2022-09-28T10:11:04;98.70;;;85.43;;
24857;SDS011;12935;50.782;6.074;2022-09-28T10:13:36;109.37;;;89.57;;
24857;SDS011;12935;50.782;6.074;2022-09-28T10:16:03;117.33;;;91.10;;
24857;SDS011;12935;50.782;6.074;2022-09-28T10:18:29;121.80;;;93.80;;
24857;SDS011;12935;50.782;6.074;2022-09-28T10:20:55;109.67;;;91.97;;
24857;SDS011;12935;50.782;6.074;2022-09-28T10:23:21;116.50;;;94.70;;
24857;SDS011;12935;50.782;6.074;2022-09-28T10:25:50;105.27;;;90.40;;
24857;SDS011;12935;50.782;6.074;2022-09-28T10:28:20;102.70;;;89.00;;
24857;SDS011;12935;50.782;6.074;2022-09-28T10:30:53;105.23;;;91.67;;
24857;SDS011;12935;50.782;6.074;2022-09-28T10:33:32;99.00;;;88.40;;
24857;SDS011;12935;50.782;6.074;2022-09-28T10:35:58;107.40;;;89.30;;
24857;SDS011;12935;50.782;6.074;2022-09-28T10:38:25;113.97;;;94.40;;
24857;SDS011;12935;50.782;6.074;2022-09-28T10:40:53;105.33;;;91.73;;
24857;SDS011;12935;50.782;6.074;2022-09-28T10:46:05;114.60;;;92.10;;
24857;SDS011;12935;50.782;6.074;2022-09-28T10:51:13;124.88;;;95.15;;
24857;SDS011;12935;50.782;6.074;2022-09-28T10:53:39;113.00;;;92.00;;
24857;SDS011;12935;50.782;6.074;2022-09-28T10:56:05;102.23;;;81.30;;
24857;SDS011;12935;50.782;6.074;2022-09-28T10:58:41;111.43;;;87.95;;
24857;SDS011;12935;50.782;6.074;2022-09-28T11:01:09;126.65;;;90.20;;
24857;SDS011;12935;50.782;6.074;2022-09-28T11:03:46;106.57;;;89.93;;
24857;SDS011;12935;50.782;6.074;2022-09-28T11:06:25;104.17;;;86.70;;
24857;SDS011;12935;50.782;6.074;2022-09-28T11:08:54;98.97;;;86.63;;
24857;SDS011;12935;50.782;6.074;2022-09-28T11:11:22;100.13;;;89.07;;
24857;SDS011;12935;50.782;6.074;2022-09-28T11:13:52;113.43;;;92.53;;
24857;SDS011;12935;50.782;6.074;2022-09-28T11:16:24;111.20;;;90.13;;
24857;SDS011;12935;50.782;6.074;2022-09-28T11:18:58;118.63;;;94.70;;
24857;SDS011;12935;50.782;6.074;2022-09-28T11:21:50;101.10;;;90.05;;
24857;SDS011;12935;50.782;6.074;2022-09-28T11:26:45;116.70;;;93.93;;
24857;SDS011;12935;50.782;6.074;2022-09-28T11:29:20;101.67;;;88.07;;
24857;SDS011;12935;50.782;6.074;2022-09-28T11:32:05;114.00;;;92.87;;
24857;SDS011;12935;50.782;6.074;2022-09-28T11:34:36;104.20;;;90.80;;
24857;SDS011;12935;50.782;6.074;2022-09-28T11:40:28;101.57;;;88.40;;
24857;SDS011;12935;50.782;6.074;2022-09-28T11:46:00;116.65;;;92.05;;
24857;SDS011;12935;50.782;6.074;2022-09-28T11:48:46;88.50;;;73.70;;
24857;SDS011;12935;50.782;6.074;2022-09-28T11:51:17;80.80;;;72.10;;
24857;SDS011;12935;50.782;6.074;2022-09-28T11:53:55;93.47;;;77.95;;
24857;SDS011;12935;50.782;6.074;2022-09-28T11:56:31;109.20;;;80.30;;
24857;SDS011;12935;50.782;6.074;2022-09-28T11:59:07;85.17;;;75.90;;
24857;SDS011;12935;50.782;6.074;2022-09-28T12:01:42;90.05;;;78.90;;
24857;SDS011;12935;50.782;6.074;2022-09-28T12:04:16;91.03;;;79.97;;
24857;SDS011;12935;50.782;6.074;2022-09-28T12:06:58;98.23;;;80.27;;
24857;SDS011;12935;50.782;6.074;2022-09-28T12:09:31;97.20;;;82.53;;
24857;SDS011;12935;50.782;6.074;2022-09-28T12:12:03;105.93;;;83.30;;
24857;SDS011;12935;50.782;6.074;2022-09-28T12:14:37;99.93;;;84.20;;
24857;SDS011;12935;50.782;6.074;2022-09-28T12:17:06;95.07;;;80.47;;
24857;SDS011;12935;50.782;6.074;2022-09-28T12:19:41;112.70;;;90.70;;
24857;SDS011;12935;50.782;6.074;2022-09-28T12:22:18;122.90;;;86.53;;
24857;SDS011;12935;50.782;6.074;2022-09-28T12:24:48;103.97;;;80.93;;
24857;SDS011;12935;50.782;6.074;2022-09-28T12:32:51;96.73;;;81.57;;
24857;SDS011;12935;50.782;6.074;2022-09-28T12:35:26;98.93;;;81.47;;
24857;SDS011;12935;50.782;6.074;2022-09-28T12:38:05;102.80;;;84.00;;
24857;SDS011;12935;50.782;6.074;2022-09-28T12:46:37;98.73;;;78.80;;
24857;SDS011;12935;50.782;6.074;2022-09-28T12:55:06;91.97;;;76.50;;
24857;SDS011;12935;50.782;6.074;2022-09-28T12:57:54;94.03;;;78.00;;
24857;SDS011;12935;50.782;6.074;2022-09-28T13:00:23;110.23;;;81.80;;
24857;SDS011;12935;50.782;6.074;2022-09-28T13:03:13;101.13;;;79.53;;
24857;SDS011;12935;50.782;6.074;2022-09-28T13:06:08;101.37;;;80.03;;
24857;SDS011;12935;50.782;6.074;2022-09-28T13:08:55;82.63;;;73.10;;
24857;SDS011;12935;50.782;6.074;2022-09-28T13:20:07;106.83;;;81.70;;
24857;SDS011;12935;50.782;6.074;2022-09-28T13:25:19;85.90;;;73.93;;
24857;SDS011;12935;50.782;6.074;2022-09-28T13:27:52;87.53;;;75.60;;
24857;SDS011;12935;50.782;6.074;2022-09-28T13:30:22;92.23;;;73.97;;
24857;SDS011;12935;50.782;6.074;2022-09-28T13:32:49;93.30;;;74.77;;
24857;SDS011;12935;50.782;6.074;2022-09-28T13:35:16;120.53;;;82.67;;
24857;SDS011;12935;50.782;6.074;2022-09-28T13:37:45;100.80;;;79.77;;
24857;SDS011;12935;50.782;6.074;2022-09-28T13:40:12;108.37;;;83.93;;
24857;SDS011;12935;50.782;6.074;2022-09-28T13:42:48;108.53;;;84.73;;
24857;SDS011;12935;50.782;6.074;2022-09-28T13:50:26;108.30;;;89.30;;
24857;SDS011;12935;50.782;6.074;2022-09-28T14:05:45;123.87;;;94.33;;
24857;SDS011;12935;50.782;6.074;2022-09-28T14:10:51;126.93;;;96.97;;
24857;SDS011;12935;50.782;6.074;2022-09-28T14:16:19;90.17;;;77.17;;
24857;SDS011;12935;50.782;6.074;2022-09-28T14:18:50;113.37;;;83.13;;
24857;SDS011;12935;50.782;6.074;2022-09-28T14:21:21;111.50;;;84.00;;
24857;SDS011;12935;50.782;6.074;2022-09-28T14:32:56;112.35;;;91.80;;
24857;SDS011;12935;50.782;6.074;2022-09-28T14:35:33;107.10;;;89.70;;
24857;SDS011;12935;50.782;6.074;2022-09-28T14:38:05;98.85;;;88.18;;
24857;SDS011;12935;50.782;6.074;2022-09-28T14:48:43;105.32;;;90.25;;
24857;SDS011;12935;50.782;6.074;2022-09-28T14:54:04;118.05;;;95.30;;
24857;SDS011;12935;50.782;6.074;2022-09-28T14:56:43;95.20;;;84.72;;
24857;SDS011;12935;50.782;6.074;2022-09-28T15:01:46;114.03;;;90.67;;
24857;SDS011;12935;50.782;6.074;2022-09-28T15:04:17;103.70;;;89.93;;
24857;SDS011;12935;50.782;6.074;2022-09-28T15:06:44;97.32;;;86.45;;
24857;SDS011;12935;50.782;6.074;2022-09-28T15:09:31;98.93;;;87.07;;
24857;SDS011;12935;50.782;6.074;2022-09-28T15:12:15;110.53;;;90.80;;
24857;SDS011;12935;50.782;6.074;2022-09-28T15:17:49;100.60;;;86.65;;
24857;SDS011;12935;50.782;6.074;2022-09-28T15:20:39;135.82;;;93.72;;
24857;SDS011;12935;50.782;6.074;2022-09-28T15:26:24;91.97;;;74.68;;
24857;SDS011;12935;50.782;6.074;2022-09-28T15:28:53;84.13;;;72.30;;
24857;SDS011;12935;50.782;6.074;2022-09-28T15:31:20;88.60;;;74.45;;
24857;SDS011;12935;50.782;6.074;2022-09-28T15:33:47;77.97;;;70.03;;
24857;SDS011;12935;50.782;6.074;2022-09-28T15:36:33;100.07;;;75.80;;
24857;SDS011;12935;50.782;6.074;2022-09-28T15:39:18;109.35;;;79.60;;
24857;SDS011;12935;50.782;6.074;2022-09-28T15:41:46;82.95;;;72.30;;
24857;SDS011;12935;50.782;6.074;2022-09-28T15:46:40;82.00;;;71.80;;
24857;SDS011;12935;50.782;6.074;2022-09-28T15:51:50;106.78;;;78.72;;
24857;SDS011;12935;50.782;6.074;2022-09-28T15:54:27;80.53;;;72.20;;
24857;SDS011;12935;50.782;6.074;2022-09-28T15:56:57;124.37;;;77.80;;
24857;SDS011;12935;50.782;6.074;2022-09-28T15:59:32;87.80;;;73.50;;
24857;SDS011;12935;50.782;6.074;2022-09-28T16:02:20;95.25;;;78.13;;
24857;SDS011;12935;50.782;6.074;2022-09-28T16:04:53;84.63;;;72.88;;
24857;SDS011;12935;50.782;6.074;2022-09-28T16:20:45;102.57;;;81.25;;
24857;SDS011;12935;50.782;6.074;2022-09-28T16:25:55;129.98;;;89.68;;
24857;SDS011;12935;50.782;6.074;2022-09-28T16:31:26;93.80;;;78.18;;
24857;SDS011;12935;50.782;6.074;2022-09-28T16:33:43;88.70;;;77.78;;
24857;SDS011;12935;50.782;6.074;2022-09-28T16:36:16;99.70;;;83.07;;
24857;SDS011;12935;50.782;6.074;2022-09-28T16:38:43;103.27;;;84.77;;
24857;SDS011;12935;50.782;6.074;2022-09-28T16:41:09;113.25;;;86.43;;
24857;SDS011;12935;50.782;6.074;2022-09-28T16:43:35;96.93;;;84.07;;
24857;SDS011;12935;50.782;6.074;2022-09-28T16:46:05;85.33;;;76.40;;
24857;SDS011;12935;50.782;6.074;2022-09-28T16:48:35;111.07;;;81.35;;
24857;SDS011;12935;50.782;6.074;2022-09-28T16:51:04;78.18;;;69.78;;
24857;SDS011;12935;50.782;6.074;2022-09-28T16:53:29;84.27;;;73.37;;
24857;SDS011;12935;50.782;6.074;2022-09-28T16:56:13;95.73;;;75.77;;
24857;SDS011;12935;50.782;6.074;2022-09-28T16:58:38;99.87;;;80.10;;
24857;SDS011;12935;50.782;6.074;2022-09-28T17:01:04;82.73;;;74.10;;
24857;SDS011;12935;50.782;6.074;2022-09-28T17:03:33;87.50;;;75.63;;
24857;SDS011;12935;50.782;6.074;2022-09-28T17:05:59;93.03;;;77.53;;
24857;SDS011;12935;50.782;6.074;2022-09-28T17:08:27;97.35;;;79.57;;
24857;SDS011;12935;50.782;6.074;2022-09-28T17:10:53;97.57;;;80.23;;
24857;SDS011;12935;50.782;6.074;2022-09-28T17:13:21;97.13;;;82.57;;
24857;SDS011;12935;50.782;6.074;2022-09-28T17:15:55;110.03;;;85.15;;
24857;SDS011;12935;50.782;6.074;2022-09-28T17:18:21;97.03;;;85.28;;
24857;SDS011;12935;50.782;6.074;2022-09-28T17:20:47;116.67;;;90.10;;
24857;SDS011;12935;50.782;6.074;2022-09-28T17:23:14;104.00;;;88.72;;
24857;SDS011;12935;50.782;6.074;2022-09-28T17:25:40;104.03;;;87.90;;
24857;SDS011;12935;50.782;6.074;2022-09-28T17:28:09;104.97;;;90.43;;
24857;SDS011;12935;50.782;6.074;2022-09-28T17:30:42;95.13;;;85.43;;
24857;SDS011;12935;50.782;6.074;2022-09-28T17:33:07;98.20;;;87.60;;
24857;SDS011;12935;50.782;6.074;2022-09-28T17:35:32;145.63;;;99.87;;
24857;SDS011;12935;50.782;6.074;2022-09-28T17:37:58;100.73;;;89.80;;